createdAt,value
2023-03-29T00:00:17.291Z,32.8
2023-03-29T00:05:17.331Z,32.5
2023-03-29T00:10:17.291Z,33.0
2023-03-29T00:15:17.317Z,33.3
2023-03-29T00:20:17.354Z,32.9
2023-03-29T00:25:17.714Z,32.8
2023-03-29T00:30:17.521Z,32.7
2023-03-29T00:35:17.320Z,32.6
2023-03-29T00:40:17.423Z,32.6
2023-03-29T00:45:17.500Z,32.5
2023-03-29T00:50:17.486Z,32.0
2023-03-29T00:55:15.414Z,32.4
2023-03-29T01:00:15.447Z,32.3
2023-03-29T01:05:15.808Z,32.3
2023-03-29T01:10:15.387Z,32.5
2023-03-29T01:15:15.467Z,32.6
2023-03-29T01:20:15.590Z,32.3
2023-03-29T01:25:15.466Z,32.1
2023-03-29T01:30:15.456Z,31.9
2023-03-29T01:35:15.709Z,31.8
2023-03-29T01:40:15.461Z,31.6
2023-03-29T01:45:15.722Z,31.4
2023-03-29T01:50:15.570Z,31.1
2023-03-29T01:55:15.472Z,31.1
2023-03-29T02:00:15.510Z,31.4
2023-03-29T02:05:15.509Z,31.0
2023-03-29T02:10:15.705Z,31.3
2023-03-29T02:15:15.608Z,31.2
2023-03-29T02:20:15.553Z,31.3
2023-03-29T02:25:15.602Z,31.1
2023-03-29T02:30:15.803Z,31.3
2023-03-29T02:35:15.639Z,31.3
2023-03-29T02:40:15.624Z,31.2
2023-03-29T02:45:15.753Z,31.2
2023-03-29T02:50:15.604Z,31.0
2023-03-29T02:55:15.662Z,30.8
2023-03-29T03:00:15.701Z,30.4
2023-03-29T03:05:15.646Z,30.4
2023-03-29T03:10:15.734Z,30.4
2023-03-29T03:15:15.690Z,30.0
2023-03-29T03:20:15.720Z,30.1
2023-03-29T03:25:15.840Z,30.1
2023-03-29T03:30:15.807Z,30.1
2023-03-29T03:35:15.811Z,30.3
2023-03-29T03:40:15.809Z,30.0
2023-03-29T03:45:15.765Z,30.1
2023-03-29T03:50:15.752Z,29.9
2023-03-29T03:55:15.728Z,29.6
2023-03-29T04:00:17.041Z,29.1
2023-03-29T04:05:16.827Z,29.4
2023-03-29T04:10:16.896Z,29.3
2023-03-29T04:15:16.854Z,29.2
2023-03-29T04:20:16.916Z,29.0
2023-03-29T04:25:16.877Z,28.8
2023-03-29T04:30:16.846Z,28.6
2023-03-29T04:35:16.861Z,28.4
2023-03-29T04:40:16.901Z,28.5
2023-03-29T04:45:17.260Z,28.6
2023-03-29T04:50:16.962Z,28.7
2023-03-29T04:55:17.062Z,28.8
2023-03-29T05:00:17.084Z,28.8
2023-03-29T05:05:17.013Z,28.8
2023-03-29T05:10:16.926Z,28.9
2023-03-29T05:15:17.133Z,28.7
2023-03-29T05:20:16.953Z,28.7
2023-03-29T05:25:17.015Z,28.7
2023-03-29T05:30:16.983Z,28.8
2023-03-29T05:35:17.096Z,29.0
2023-03-29T05:40:16.999Z,28.9
2023-03-29T05:45:16.915Z,29.4
2023-03-29T05:50:16.982Z,29.8
2023-03-29T05:55:17.027Z,30.0
2023-03-29T06:00:17.191Z,30.0
2023-03-29T06:05:17.030Z,30.2
2023-03-29T06:10:17.017Z,30.0
2023-03-29T06:15:17.016Z,30.1
2023-03-29T06:20:17.173Z,30.2
2023-03-29T06:25:17.242Z,30.6
2023-03-29T06:30:17.191Z,30.5
2023-03-29T06:35:17.208Z,30.3
2023-03-29T06:40:17.167Z,30.3
2023-03-29T06:45:17.178Z,30.2
2023-03-29T06:50:17.232Z,30.5
2023-03-29T06:55:17.343Z,30.2
2023-03-29T07:00:17.209Z,30.3
2023-03-29T07:05:17.187Z,30.3
2023-03-29T07:10:17.136Z,29.8
2023-03-29T07:15:17.226Z,29.7
2023-03-29T07:20:17.278Z,29.6
2023-03-29T07:25:17.254Z,29.7
2023-03-29T07:30:17.241Z,29.7
2023-03-29T07:35:17.195Z,29.5
2023-03-29T07:40:17.383Z,29.3
2023-03-29T07:45:17.277Z,29.3
2023-03-29T07:50:17.327Z,28.8
2023-03-29T07:55:17.177Z,28.8
2023-03-29T08:00:17.342Z,28.6
2023-03-29T08:05:23.258Z,28.5
2023-03-29T08:10:17.309Z,28.4
2023-03-29T08:15:17.370Z,28.8
2023-03-29T08:20:17.297Z,29.1
2023-03-29T08:25:17.447Z,29.0
2023-03-29T08:30:17.513Z,28.9
2023-03-29T08:35:17.415Z,28.9
2023-03-29T08:40:17.533Z,28.6
2023-03-29T08:45:15.325Z,28.5
2023-03-29T08:50:15.443Z,28.3
2023-03-29T08:55:15.467Z,28.4
2023-03-29T09:00:15.426Z,28.4
2023-03-29T09:05:15.420Z,28.3
2023-03-29T09:10:15.753Z,28.2
2023-03-29T09:15:15.557Z,28.3
2023-03-29T09:20:15.511Z,28.0
2023-03-29T09:25:15.452Z,28.0
2023-03-29T09:30:15.593Z,28.2
2023-03-29T09:35:15.547Z,28.3
2023-03-29T09:40:15.598Z,28.1
2023-03-29T09:45:15.562Z,28.2
2023-03-29T09:50:29.641Z,28.1
2023-03-29T09:55:15.475Z,28.0
2023-03-29T10:00:15.552Z,28.1
2023-03-29T10:05:15.743Z,28.1
2023-03-29T10:10:15.587Z,28.1
2023-03-29T10:15:26.668Z,27.8
2023-03-29T10:20:15.740Z,27.8
2023-03-29T10:25:15.616Z,27.5
2023-03-29T10:30:15.596Z,27.6
2023-03-29T10:35:15.753Z,27.2
2023-03-29T10:40:15.706Z,27.1
2023-03-29T10:45:15.679Z,27.1
2023-03-29T10:50:15.666Z,27.1
2023-03-29T10:55:15.824Z,27.6
2023-03-29T11:00:15.733Z,27.6
2023-03-29T11:05:15.699Z,28.1
2023-03-29T11:10:15.704Z,27.8
2023-03-29T11:15:15.693Z,27.8
2023-03-29T11:20:15.934Z,27.6
2023-03-29T11:25:15.750Z,28.0
2023-03-29T11:30:15.748Z,28.2
2023-03-29T11:35:15.917Z,28.6
2023-03-29T11:40:15.821Z,29.0
2023-03-29T11:45:15.755Z,29.4
2023-03-29T11:50:15.856Z,29.4
2023-03-29T11:55:15.669Z,29.4
2023-03-29T12:00:15.868Z,29.4
2023-03-29T12:05:15.787Z,29.7
2023-03-29T12:10:15.924Z,29.8
2023-03-29T12:15:16.021Z,29.6
2023-03-29T12:20:16.128Z,29.3
2023-03-29T12:25:17.836Z,28.3
2023-03-29T12:30:16.042Z,28.2
2023-03-29T12:35:15.942Z,27.9
2023-03-29T12:40:15.999Z,28.4
2023-03-29T12:45:15.976Z,28.7
2023-03-29T12:50:16.059Z,28.1
2023-03-29T12:55:16.044Z,28.1
2023-03-29T13:00:16.064Z,28.2
2023-03-29T13:05:16.047Z,28.0
2023-03-29T13:10:15.953Z,28.1
2023-03-29T13:15:16.006Z,28.3
2023-03-29T13:20:16.045Z,28.1
2023-03-29T13:25:16.049Z,27.9
2023-03-29T13:30:15.991Z,27.9
2023-03-29T13:35:16.014Z,27.9
2023-03-29T13:40:16.119Z,28.4
2023-03-29T13:45:16.146Z,27.7
2023-03-29T13:50:16.061Z,28.1
2023-03-29T13:55:15.965Z,28.0
2023-03-29T14:00:16.080Z,28.1
2023-03-29T14:05:16.050Z,28.0
2023-03-29T14:10:16.220Z,28.4
2023-03-29T14:15:16.122Z,28.6
2023-03-29T14:20:16.065Z,28.3
2023-03-29T14:25:16.911Z,28.3
2023-03-29T14:30:16.292Z,28.0
2023-03-29T14:35:16.325Z,28.0
2023-03-29T14:40:16.170Z,28.7
2023-03-29T14:45:16.343Z,29.0
2023-03-29T14:50:16.338Z,27.7
2023-03-29T14:55:16.191Z,28.1
2023-03-29T15:00:16.250Z,28.0
2023-03-29T15:05:16.216Z,28.6
2023-03-29T15:10:16.266Z,28.4
2023-03-29T15:15:16.215Z,28.0
2023-03-29T15:20:16.261Z,27.2
2023-03-29T15:25:16.235Z,28.4
2023-03-29T15:30:16.329Z,29.7
2023-03-29T15:35:16.429Z,29.7
2023-03-29T15:40:16.431Z,29.3
2023-03-29T15:45:16.331Z,29.9
2023-03-29T15:50:16.371Z,29.2
2023-03-29T15:55:16.254Z,29.1
2023-03-29T16:00:16.423Z,28.7
2023-03-29T16:05:16.372Z,27.9
2023-03-29T16:10:16.500Z,28.3
2023-03-29T16:15:16.429Z,29.0
2023-03-29T16:20:16.383Z,28.2
2023-03-29T16:25:16.485Z,28.3
2023-03-29T16:30:16.453Z,27.2
2023-03-29T16:35:16.516Z,29.2
2023-03-29T16:40:16.487Z,30.1
2023-03-29T16:45:16.459Z,31.4
2023-03-29T16:50:16.569Z,31.3
2023-03-29T16:55:16.473Z,32.2
2023-03-29T17:00:16.747Z,32.3
2023-03-29T17:05:16.519Z,31.4
2023-03-29T17:10:16.547Z,31.5
2023-03-29T17:15:16.467Z,31.4
2023-03-29T17:20:16.586Z,31.7
2023-03-29T17:25:16.590Z,31.2
2023-03-29T17:30:16.602Z,31.3
2023-03-29T17:35:16.602Z,31.1
2023-03-29T17:40:16.549Z,31.1
2023-03-29T17:45:16.642Z,31.0
2023-03-29T17:50:16.672Z,31.5
2023-03-29T17:55:19.682Z,31.3
2023-03-29T18:00:16.568Z,31.1
2023-03-29T18:05:16.677Z,29.9
2023-03-29T18:10:16.904Z,31.0
2023-03-29T18:15:16.790Z,31.3
2023-03-29T18:20:16.749Z,31.0
2023-03-29T18:25:16.603Z,31.4
2023-03-29T18:30:16.922Z,31.6
2023-03-29T18:35:16.828Z,31.7
2023-03-29T18:40:16.755Z,31.3
2023-03-29T18:45:16.775Z,31.6
2023-03-29T18:50:16.684Z,31.7
2023-03-29T18:55:16.783Z,31.6
2023-03-29T19:00:16.839Z,31.4
2023-03-29T19:05:16.728Z,32.0
2023-03-29T19:10:16.893Z,31.5
2023-03-29T19:15:16.815Z,31.0
2023-03-29T19:20:16.954Z,30.7
2023-03-29T19:25:16.825Z,31.7
2023-03-29T19:30:16.796Z,31.2
2023-03-29T19:35:16.830Z,31.2
2023-03-29T19:40:16.972Z,31.4
2023-03-29T19:45:16.856Z,30.6
2023-03-29T19:50:16.912Z,30.9
2023-03-29T19:55:16.843Z,30.7
2023-03-29T20:00:16.900Z,31.5
2023-03-29T20:05:16.928Z,31.0
2023-03-29T20:10:16.862Z,31.1
2023-03-29T20:15:16.942Z,31.0
2023-03-29T20:20:16.892Z,30.2
2023-03-29T20:25:16.936Z,30.9
2023-03-29T20:30:16.974Z,30.1
2023-03-29T20:35:16.957Z,30.5
2023-03-29T20:40:17.038Z,30.9
2023-03-29T20:45:16.933Z,31.6
2023-03-29T20:50:17.013Z,31.4
2023-03-29T20:55:17.165Z,30.8
2023-03-29T21:00:17.193Z,31.7
2023-03-29T21:05:17.064Z,32.3
2023-03-29T21:10:17.011Z,31.5
2023-03-29T21:15:17.160Z,31.5
2023-03-29T21:20:17.042Z,32.2
2023-03-29T21:25:17.113Z,32.0
2023-03-29T21:30:17.103Z,32.4
2023-03-29T21:35:17.092Z,31.7
2023-03-29T21:40:17.237Z,32.5
2023-03-29T21:45:17.142Z,32.0
2023-03-29T21:50:17.140Z,32.5
2023-03-29T21:55:17.078Z,31.9
2023-03-29T22:00:17.272Z,31.9
2023-03-29T22:05:17.397Z,32.2
2023-03-29T22:10:17.154Z,32.4
2023-03-29T22:15:17.164Z,32.9
2023-03-29T22:20:17.151Z,33.1
2023-03-29T22:25:17.224Z,33.2
2023-03-29T22:30:17.302Z,33.1
2023-03-29T22:35:17.344Z,33.1
2023-03-29T22:40:17.285Z,33.1
2023-03-29T22:45:17.210Z,32.3
2023-03-29T22:50:17.232Z,32.4
2023-03-29T22:55:17.285Z,32.4
2023-03-29T23:00:17.190Z,32.4
2023-03-29T23:05:17.263Z,32.3
2023-03-29T23:10:17.301Z,32.7
2023-03-29T23:15:17.556Z,32.9
2023-03-29T23:20:17.371Z,33.0
2023-03-29T23:25:17.331Z,33.1
2023-03-29T23:30:17.384Z,33.6
2023-03-29T23:35:17.500Z,33.5
2023-03-29T23:40:17.331Z,33.5
2023-03-29T23:45:17.383Z,33.6
2023-03-29T23:50:17.547Z,33.9
2023-03-29T23:55:15.312Z,33.7
